sensor_id;sensor_type;location;lat;lon;timestamp;P1;durP1;ratioP1;P2;durP2;ratioP2
27566;SDS011;15006;48.584;9.186;2022-12-22T00:02:00;3.30;;;1.45;;
27566;SDS011;15006;48.584;9.186;2022-12-22T00:04:55;2.50;;;1.35;;
27566;SDS011;15006;48.584;9.186;2022-12-22T00:07:41;6.65;;;1.40;;
27566;SDS011;15006;48.584;9.186;2022-12-22T00:10:28;2.17;;;1.30;;
27566;SDS011;15006;48.584;9.186;2022-12-22T00:13:14;1.40;;;1.30;;
27566;SDS011;15006;48.584;9.186;2022-12-22T00:16:03;2.45;;;1.40;;
27566;SDS011;15006;48.584;9.186;2022-12-22T00:18:48;3.70;;;1.60;;
27566;SDS011;15006;48.584;9.186;2022-12-22T00:21:35;2.33;;;1.20;;
27566;SDS011;15006;48.584;9.186;2022-12-22T00:24:22;1.52;;;1.10;;
27566;SDS011;15006;48.584;9.186;2022-12-22T00:27:15;3.60;;;1.10;;
27566;SDS011;15006;48.584;9.186;2022-12-22T00:30:17;2.25;;;1.15;;
27566;SDS011;15006;48.584;9.186;2022-12-22T00:33:03;1.38;;;1.00;;
27566;SDS011;15006;48.584;9.186;2022-12-22T00:35:50;1.17;;;1.10;;
27566;SDS011;15006;48.584;9.186;2022-12-22T00:38:35;2.05;;;1.45;;
27566;SDS011;15006;48.584;9.186;2022-12-22T00:41:20;1.00;;;1.00;;
27566;SDS011;15006;48.584;9.186;2022-12-22T00:44:04;1.17;;;1.08;;
27566;SDS011;15006;48.584;9.186;2022-12-22T00:46:48;1.23;;;1.13;;
27566;SDS011;15006;48.584;9.186;2022-12-22T00:49:33;4.10;;;1.20;;
27566;SDS011;15006;48.584;9.186;2022-12-22T00:52:20;1.20;;;1.20;;
27566;SDS011;15006;48.584;9.186;2022-12-22T00:55:13;1.17;;;1.08;;
27566;SDS011;15006;48.584;9.186;2022-12-22T00:58:01;1.40;;;1.30;;
27566;SDS011;15006;48.584;9.186;2022-12-22T01:00:54;2.25;;;1.42;;
27566;SDS011;15006;48.584;9.186;2022-12-22T01:03:42;1.25;;;1.20;;
27566;SDS011;15006;48.584;9.186;2022-12-22T01:06:28;1.20;;;1.10;;
27566;SDS011;15006;48.584;9.186;2022-12-22T01:09:17;1.30;;;1.20;;
27566;SDS011;15006;48.584;9.186;2022-12-22T01:12:03;1.70;;;1.23;;
27566;SDS011;15006;48.584;9.186;2022-12-22T01:14:57;2.00;;;1.33;;
27566;SDS011;15006;48.584;9.186;2022-12-22T01:17:41;2.80;;;1.10;;
27566;SDS011;15006;48.584;9.186;2022-12-22T01:20:26;1.83;;;1.33;;
27566;SDS011;15006;48.584;9.186;2022-12-22T01:23:10;1.50;;;1.40;;
27566;SDS011;15006;48.584;9.186;2022-12-22T01:25:54;1.13;;;1.10;;
27566;SDS011;15006;48.584;9.186;2022-12-22T01:28:39;3.00;;;1.45;;
27566;SDS011;15006;48.584;9.186;2022-12-22T01:31:27;1.50;;;1.40;;
27566;SDS011;15006;48.584;9.186;2022-12-22T01:34:14;1.45;;;1.33;;
27566;SDS011;15006;48.584;9.186;2022-12-22T01:36:59;1.23;;;1.10;;
27566;SDS011;15006;48.584;9.186;2022-12-22T01:39:44;1.75;;;1.30;;
27566;SDS011;15006;48.584;9.186;2022-12-22T01:42:30;1.45;;;1.20;;
27566;SDS011;15006;48.584;9.186;2022-12-22T01:48:14;1.08;;;1.02;;
27566;SDS011;15006;48.584;9.186;2022-12-22T01:51:10;1.30;;;1.30;;
27566;SDS011;15006;48.584;9.186;2022-12-22T01:54:00;1.13;;;1.02;;
27566;SDS011;15006;48.584;9.186;2022-12-22T01:56:44;1.80;;;1.08;;
27566;SDS011;15006;48.584;9.186;2022-12-22T01:59:30;2.47;;;0.90;;
27566;SDS011;15006;48.584;9.186;2022-12-22T02:02:16;4.13;;;1.58;;
27566;SDS011;15006;48.584;9.186;2022-12-22T02:05:05;1.90;;;1.10;;
27566;SDS011;15006;48.584;9.186;2022-12-22T02:23:25;1.00;;;0.90;;
27566;SDS011;15006;48.584;9.186;2022-12-22T02:26:34;0.83;;;0.83;;
27566;SDS011;15006;48.584;9.186;2022-12-22T02:29:26;2.92;;;0.70;;
27566;SDS011;15006;48.584;9.186;2022-12-22T02:32:15;0.60;;;0.60;;
27566;SDS011;15006;48.584;9.186;2022-12-22T02:34:59;0.88;;;0.60;;
27566;SDS011;15006;48.584;9.186;2022-12-22T02:41:05;0.80;;;0.80;;
27566;SDS011;15006;48.584;9.186;2022-12-22T02:47:28;1.35;;;0.65;;
27566;SDS011;15006;48.584;9.186;2022-12-22T02:50:44;1.25;;;0.57;;
27566;SDS011;15006;48.584;9.186;2022-12-22T02:53:54;0.70;;;0.60;;
27566;SDS011;15006;48.584;9.186;2022-12-22T02:56:40;2.35;;;0.55;;
27566;SDS011;15006;48.584;9.186;2022-12-22T02:59:25;2.67;;;0.60;;
27566;SDS011;15006;48.584;9.186;2022-12-22T03:02:09;0.50;;;0.50;;
27566;SDS011;15006;48.584;9.186;2022-12-22T03:04:55;1.90;;;0.50;;
27566;SDS011;15006;48.584;9.186;2022-12-22T03:07:39;0.50;;;0.50;;
27566;SDS011;15006;48.584;9.186;2022-12-22T03:10:23;0.63;;;0.60;;
27566;SDS011;15006;48.584;9.186;2022-12-22T03:13:08;0.45;;;0.45;;
27566;SDS011;15006;48.584;9.186;2022-12-22T03:15:52;0.73;;;0.50;;
27566;SDS011;15006;48.584;9.186;2022-12-22T03:18:36;1.25;;;0.75;;
27566;SDS011;15006;48.584;9.186;2022-12-22T03:21:21;1.08;;;0.60;;
27566;SDS011;15006;48.584;9.186;2022-12-22T03:24:06;0.45;;;0.40;;
27566;SDS011;15006;48.584;9.186;2022-12-22T03:26:51;1.10;;;0.65;;
27566;SDS011;15006;48.584;9.186;2022-12-22T03:29:17;0.43;;;0.43;;
27566;SDS011;15006;48.584;9.186;2022-12-22T03:31:43;1.15;;;0.60;;
27566;SDS011;15006;48.584;9.186;2022-12-22T03:34:08;1.00;;;0.43;;
27566;SDS011;15006;48.584;9.186;2022-12-22T03:36:35;0.77;;;0.50;;
27566;SDS011;15006;48.584;9.186;2022-12-22T03:39:00;0.75;;;0.60;;
27566;SDS011;15006;48.584;9.186;2022-12-22T03:41:27;0.60;;;0.60;;
27566;SDS011;15006;48.584;9.186;2022-12-22T03:44:31;1.08;;;0.60;;
27566;SDS011;15006;48.584;9.186;2022-12-22T03:47:15;2.05;;;0.93;;
27566;SDS011;15006;48.584;9.186;2022-12-22T03:49:41;0.60;;;0.60;;
27566;SDS011;15006;48.584;9.186;2022-12-22T03:52:07;0.60;;;0.57;;
27566;SDS011;15006;48.584;9.186;2022-12-22T03:54:33;1.50;;;0.50;;
27566;SDS011;15006;48.584;9.186;2022-12-22T03:56:59;1.65;;;0.60;;
27566;SDS011;15006;48.584;9.186;2022-12-22T03:59:25;2.20;;;0.60;;
27566;SDS011;15006;48.584;9.186;2022-12-22T04:01:52;0.70;;;0.57;;
27566;SDS011;15006;48.584;9.186;2022-12-22T04:04:19;0.50;;;0.50;;
27566;SDS011;15006;48.584;9.186;2022-12-22T04:06:48;0.82;;;0.45;;
27566;SDS011;15006;48.584;9.186;2022-12-22T04:09:14;1.95;;;0.50;;
27566;SDS011;15006;48.584;9.186;2022-12-22T04:11:40;2.45;;;0.60;;
27566;SDS011;15006;48.584;9.186;2022-12-22T04:14:24;0.63;;;0.38;;
27566;SDS011;15006;48.584;9.186;2022-12-22T04:16:50;1.08;;;0.30;;
27566;SDS011;15006;48.584;9.186;2022-12-22T04:19:16;0.93;;;0.50;;
27566;SDS011;15006;48.584;9.186;2022-12-22T04:21:42;0.98;;;0.80;;
27566;SDS011;15006;48.584;9.186;2022-12-22T04:24:09;0.80;;;0.43;;
27566;SDS011;15006;48.584;9.186;2022-12-22T04:26:36;1.80;;;1.02;;
27566;SDS011;15006;48.584;9.186;2022-12-22T04:29:02;0.85;;;0.57;;
27566;SDS011;15006;48.584;9.186;2022-12-22T04:31:28;0.52;;;0.40;;
27566;SDS011;15006;48.584;9.186;2022-12-22T04:33:54;1.00;;;0.57;;
27566;SDS011;15006;48.584;9.186;2022-12-22T04:36:20;0.70;;;0.57;;
27566;SDS011;15006;48.584;9.186;2022-12-22T04:38:46;1.40;;;0.52;;
27566;SDS011;15006;48.584;9.186;2022-12-22T04:41:12;2.05;;;0.60;;
27566;SDS011;15006;48.584;9.186;2022-12-22T04:43:38;1.23;;;0.50;;
27566;SDS011;15006;48.584;9.186;2022-12-22T04:46:04;0.60;;;0.50;;
27566;SDS011;15006;48.584;9.186;2022-12-22T04:48:30;1.00;;;0.70;;
27566;SDS011;15006;48.584;9.186;2022-12-22T04:50:58;1.05;;;0.70;;
27566;SDS011;15006;48.584;9.186;2022-12-22T04:53:26;1.40;;;0.60;;
27566;SDS011;15006;48.584;9.186;2022-12-22T04:55:58;3.30;;;0.80;;
27566;SDS011;15006;48.584;9.186;2022-12-22T04:58:27;2.97;;;1.30;;
27566;SDS011;15006;48.584;9.186;2022-12-22T05:00:53;1.25;;;0.75;;
27566;SDS011;15006;48.584;9.186;2022-12-22T05:03:20;3.08;;;1.23;;
27566;SDS011;15006;48.584;9.186;2022-12-22T05:05:46;3.38;;;1.10;;
27566;SDS011;15006;48.584;9.186;2022-12-22T05:08:12;1.33;;;0.70;;
27566;SDS011;15006;48.584;9.186;2022-12-22T05:10:38;2.55;;;1.20;;
27566;SDS011;15006;48.584;9.186;2022-12-22T05:13:04;2.28;;;1.02;;
27566;SDS011;15006;48.584;9.186;2022-12-22T05:15:31;2.20;;;1.15;;
27566;SDS011;15006;48.584;9.186;2022-12-22T05:18:00;4.00;;;1.35;;
27566;SDS011;15006;48.584;9.186;2022-12-22T05:20:27;3.03;;;1.00;;
27566;SDS011;15006;48.584;9.186;2022-12-22T05:22:53;3.45;;;1.20;;
27566;SDS011;15006;48.584;9.186;2022-12-22T05:25:20;3.42;;;1.10;;
27566;SDS011;15006;48.584;9.186;2022-12-22T05:27:47;3.80;;;1.10;;
27566;SDS011;15006;48.584;9.186;2022-12-22T05:30:15;4.38;;;1.85;;
27566;SDS011;15006;48.584;9.186;2022-12-22T05:32:43;3.45;;;1.30;;
27566;SDS011;15006;48.584;9.186;2022-12-22T05:35:09;4.45;;;1.63;;
27566;SDS011;15006;48.584;9.186;2022-12-22T05:37:35;3.75;;;2.03;;
27566;SDS011;15006;48.584;9.186;2022-12-22T05:40:01;2.75;;;1.08;;
27566;SDS011;15006;48.584;9.186;2022-12-22T05:42:29;4.22;;;1.13;;
27566;SDS011;15006;48.584;9.186;2022-12-22T05:45:17;6.43;;;1.70;;
27566;SDS011;15006;48.584;9.186;2022-12-22T05:47:48;4.25;;;1.55;;
27566;SDS011;15006;48.584;9.186;2022-12-22T05:50:22;3.17;;;1.92;;
27566;SDS011;15006;48.584;9.186;2022-12-22T05:52:49;4.97;;;2.08;;
27566;SDS011;15006;48.584;9.186;2022-12-22T05:55:15;7.65;;;2.65;;
27566;SDS011;15006;48.584;9.186;2022-12-22T05:57:42;5.15;;;1.58;;
27566;SDS011;15006;48.584;9.186;2022-12-22T06:00:09;4.57;;;1.40;;
27566;SDS011;15006;48.584;9.186;2022-12-22T06:02:40;3.80;;;1.55;;
27566;SDS011;15006;48.584;9.186;2022-12-22T06:05:07;3.22;;;1.10;;
27566;SDS011;15006;48.584;9.186;2022-12-22T06:07:35;4.65;;;1.40;;
27566;SDS011;15006;48.584;9.186;2022-12-22T06:10:02;7.47;;;1.48;;
27566;SDS011;15006;48.584;9.186;2022-12-22T06:12:34;5.55;;;1.77;;
27566;SDS011;15006;48.584;9.186;2022-12-22T06:15:00;6.35;;;1.55;;
27566;SDS011;15006;48.584;9.186;2022-12-22T06:17:26;3.28;;;1.77;;
27566;SDS011;15006;48.584;9.186;2022-12-22T06:19:52;3.80;;;1.67;;
27566;SDS011;15006;48.584;9.186;2022-12-22T06:22:18;3.92;;;1.13;;
27566;SDS011;15006;48.584;9.186;2022-12-22T06:24:44;3.28;;;1.40;;
27566;SDS011;15006;48.584;9.186;2022-12-22T06:27:10;3.92;;;1.45;;
27566;SDS011;15006;48.584;9.186;2022-12-22T06:29:36;5.18;;;1.30;;
27566;SDS011;15006;48.584;9.186;2022-12-22T06:32:02;3.58;;;1.30;;
27566;SDS011;15006;48.584;9.186;2022-12-22T06:34:29;7.07;;;1.70;;
27566;SDS011;15006;48.584;9.186;2022-12-22T06:36:55;5.18;;;1.35;;
27566;SDS011;15006;48.584;9.186;2022-12-22T06:39:21;4.43;;;1.00;;
27566;SDS011;15006;48.584;9.186;2022-12-22T06:41:46;14.35;;;1.50;;
27566;SDS011;15006;48.584;9.186;2022-12-22T06:44:31;3.75;;;1.17;;
27566;SDS011;15006;48.584;9.186;2022-12-22T06:46:57;4.30;;;1.13;;
27566;SDS011;15006;48.584;9.186;2022-12-22T06:49:23;2.58;;;1.58;;
27566;SDS011;15006;48.584;9.186;2022-12-22T06:51:49;3.55;;;1.40;;
27566;SDS011;15006;48.584;9.186;2022-12-22T06:54:15;6.45;;;2.80;;
27566;SDS011;15006;48.584;9.186;2022-12-22T06:56:41;3.92;;;1.88;;
27566;SDS011;15006;48.584;9.186;2022-12-22T06:59:07;5.85;;;1.77;;
27566;SDS011;15006;48.584;9.186;2022-12-22T07:01:33;9.93;;;3.03;;
27566;SDS011;15006;48.584;9.186;2022-12-22T07:03:59;7.18;;;2.20;;
27566;SDS011;15006;48.584;9.186;2022-12-22T07:06:26;5.65;;;1.88;;
27566;SDS011;15006;48.584;9.186;2022-12-22T07:08:52;10.90;;;1.77;;
27566;SDS011;15006;48.584;9.186;2022-12-22T07:11:18;6.88;;;2.20;;
27566;SDS011;15006;48.584;9.186;2022-12-22T07:13:44;9.32;;;3.70;;
27566;SDS011;15006;48.584;9.186;2022-12-22T07:16:10;2.55;;;2.08;;
27566;SDS011;15006;48.584;9.186;2022-12-22T07:18:37;4.80;;;2.38;;
27566;SDS011;15006;48.584;9.186;2022-12-22T07:21:06;6.05;;;1.90;;
27566;SDS011;15006;48.584;9.186;2022-12-22T07:23:35;7.68;;;2.00;;
27566;SDS011;15006;48.584;9.186;2022-12-22T07:26:03;6.88;;;1.83;;
27566;SDS011;15006;48.584;9.186;2022-12-22T07:28:32;7.15;;;2.47;;
27566;SDS011;15006;48.584;9.186;2022-12-22T07:30:59;7.03;;;1.73;;
27566;SDS011;15006;48.584;9.186;2022-12-22T07:33:25;9.35;;;1.95;;
27566;SDS011;15006;48.584;9.186;2022-12-22T07:36:11;4.72;;;1.60;;
27566;SDS011;15006;48.584;9.186;2022-12-22T07:38:49;7.00;;;1.50;;
27566;SDS011;15006;48.584;9.186;2022-12-22T07:41:17;5.13;;;1.67;;
27566;SDS011;15006;48.584;9.186;2022-12-22T07:44:03;4.90;;;1.50;;
27566;SDS011;15006;48.584;9.186;2022-12-22T07:46:31;6.93;;;2.10;;
27566;SDS011;15006;48.584;9.186;2022-12-22T07:49:01;6.38;;;1.60;;
27566;SDS011;15006;48.584;9.186;2022-12-22T07:51:46;7.60;;;2.13;;
27566;SDS011;15006;48.584;9.186;2022-12-22T07:54:12;8.43;;;2.33;;
27566;SDS011;15006;48.584;9.186;2022-12-22T07:56:40;5.93;;;2.05;;
27566;SDS011;15006;48.584;9.186;2022-12-22T07:59:07;5.47;;;1.80;;
27566;SDS011;15006;48.584;9.186;2022-12-22T08:01:33;6.05;;;1.95;;
27566;SDS011;15006;48.584;9.186;2022-12-22T08:04:00;5.90;;;1.50;;
27566;SDS011;15006;48.584;9.186;2022-12-22T08:06:26;8.52;;;2.40;;
27566;SDS011;15006;48.584;9.186;2022-12-22T08:08:52;6.82;;;1.75;;
27566;SDS011;15006;48.584;9.186;2022-12-22T08:11:18;9.23;;;2.55;;
27566;SDS011;15006;48.584;9.186;2022-12-22T08:13:44;7.25;;;2.05;;
27566;SDS011;15006;48.584;9.186;2022-12-22T08:16:11;7.97;;;2.58;;
27566;SDS011;15006;48.584;9.186;2022-12-22T08:18:38;6.60;;;3.08;;
27566;SDS011;15006;48.584;9.186;2022-12-22T08:21:05;6.15;;;1.95;;
27566;SDS011;15006;48.584;9.186;2022-12-22T08:23:33;8.55;;;2.80;;
27566;SDS011;15006;48.584;9.186;2022-12-22T08:28:36;9.30;;;2.00;;
27566;SDS011;15006;48.584;9.186;2022-12-22T08:31:09;10.95;;;2.45;;
27566;SDS011;15006;48.584;9.186;2022-12-22T08:33:36;7.22;;;1.92;;
27566;SDS011;15006;48.584;9.186;2022-12-22T08:36:03;6.57;;;1.95;;
27566;SDS011;15006;48.584;9.186;2022-12-22T08:38:30;6.72;;;1.58;;
27566;SDS011;15006;48.584;9.186;2022-12-22T08:40:56;6.28;;;1.88;;
27566;SDS011;15006;48.584;9.186;2022-12-22T08:43:22;5.65;;;1.52;;
27566;SDS011;15006;48.584;9.186;2022-12-22T08:45:50;9.93;;;2.53;;
27566;SDS011;15006;48.584;9.186;2022-12-22T08:48:15;8.43;;;1.80;;
27566;SDS011;15006;48.584;9.186;2022-12-22T08:50:41;6.00;;;1.67;;
27566;SDS011;15006;48.584;9.186;2022-12-22T08:53:08;4.93;;;1.63;;
27566;SDS011;15006;48.584;9.186;2022-12-22T08:55:34;3.60;;;1.10;;
27566;SDS011;15006;48.584;9.186;2022-12-22T08:58:00;6.00;;;1.75;;
27566;SDS011;15006;48.584;9.186;2022-12-22T09:00:26;5.65;;;1.50;;
27566;SDS011;15006;48.584;9.186;2022-12-22T09:02:52;3.67;;;1.00;;
27566;SDS011;15006;48.584;9.186;2022-12-22T09:05:18;4.50;;;1.17;;
27566;SDS011;15006;48.584;9.186;2022-12-22T09:07:44;5.75;;;1.20;;
27566;SDS011;15006;48.584;9.186;2022-12-22T09:10:11;3.33;;;0.95;;
27566;SDS011;15006;48.584;9.186;2022-12-22T09:12:37;1.77;;;0.88;;
27566;SDS011;15006;48.584;9.186;2022-12-22T09:15:04;4.30;;;1.10;;
27566;SDS011;15006;48.584;9.186;2022-12-22T09:17:33;4.65;;;1.08;;
27566;SDS011;15006;48.584;9.186;2022-12-22T09:20:00;5.10;;;1.50;;
27566;SDS011;15006;48.584;9.186;2022-12-22T09:22:29;4.05;;;1.13;;
27566;SDS011;15006;48.584;9.186;2022-12-22T09:24:55;6.53;;;1.30;;
27566;SDS011;15006;48.584;9.186;2022-12-22T09:27:21;5.65;;;1.30;;
27566;SDS011;15006;48.584;9.186;2022-12-22T09:29:47;4.35;;;1.35;;
27566;SDS011;15006;48.584;9.186;2022-12-22T09:32:13;9.23;;;2.00;;
27566;SDS011;15006;48.584;9.186;2022-12-22T09:34:39;3.17;;;1.38;;
27566;SDS011;15006;48.584;9.186;2022-12-22T09:37:05;6.45;;;1.40;;
27566;SDS011;15006;48.584;9.186;2022-12-22T09:39:31;6.63;;;1.58;;
27566;SDS011;15006;48.584;9.186;2022-12-22T09:41:57;3.42;;;1.23;;
27566;SDS011;15006;48.584;9.186;2022-12-22T09:44:26;6.85;;;1.42;;
27566;SDS011;15006;48.584;9.186;2022-12-22T09:46:57;4.35;;;1.20;;
27566;SDS011;15006;48.584;9.186;2022-12-22T09:49:26;2.88;;;1.30;;
27566;SDS011;15006;48.584;9.186;2022-12-22T09:51:54;4.57;;;1.30;;
27566;SDS011;15006;48.584;9.186;2022-12-22T09:54:26;6.28;;;1.38;;
27566;SDS011;15006;48.584;9.186;2022-12-22T09:56:53;7.45;;;1.85;;
27566;SDS011;15006;48.584;9.186;2022-12-22T09:59:21;4.95;;;1.63;;
27566;SDS011;15006;48.584;9.186;2022-12-22T10:02:02;4.75;;;1.42;;
27566;SDS011;15006;48.584;9.186;2022-12-22T10:08:09;6.93;;;2.00;;
27566;SDS011;15006;48.584;9.186;2022-12-22T10:10:39;7.72;;;2.05;;
27566;SDS011;15006;48.584;9.186;2022-12-22T10:13:09;4.35;;;1.52;;
27566;SDS011;15006;48.584;9.186;2022-12-22T10:15:49;4.63;;;1.65;;
27566;SDS011;15006;48.584;9.186;2022-12-22T10:18:18;8.63;;;1.65;;
27566;SDS011;15006;48.584;9.186;2022-12-22T10:23:39;2.58;;;1.38;;
27566;SDS011;15006;48.584;9.186;2022-12-22T10:28:44;10.68;;;2.13;;
27566;SDS011;15006;48.584;9.186;2022-12-22T10:31:23;4.72;;;1.63;;
27566;SDS011;15006;48.584;9.186;2022-12-22T10:33:54;11.63;;;1.60;;
27566;SDS011;15006;48.584;9.186;2022-12-22T10:36:23;5.43;;;1.60;;
27566;SDS011;15006;48.584;9.186;2022-12-22T10:38:56;9.35;;;2.38;;
27566;SDS011;15006;48.584;9.186;2022-12-22T10:41:34;8.65;;;1.83;;
27566;SDS011;15006;48.584;9.186;2022-12-22T10:44:05;6.20;;;1.48;;
27566;SDS011;15006;48.584;9.186;2022-12-22T10:46:46;4.72;;;1.50;;
27566;SDS011;15006;48.584;9.186;2022-12-22T10:49:25;10.40;;;2.15;;
27566;SDS011;15006;48.584;9.186;2022-12-22T10:52:13;6.00;;;1.77;;
27566;SDS011;15006;48.584;9.186;2022-12-22T10:54:44;7.10;;;2.35;;
27566;SDS011;15006;48.584;9.186;2022-12-22T11:02:33;8.07;;;1.70;;
27566;SDS011;15006;48.584;9.186;2022-12-22T11:07:36;5.40;;;1.55;;
27566;SDS011;15006;48.584;9.186;2022-12-22T11:21:27;9.77;;;1.60;;
27566;SDS011;15006;48.584;9.186;2022-12-22T11:24:14;5.65;;;1.52;;
27566;SDS011;15006;48.584;9.186;2022-12-22T11:27:11;7.22;;;2.00;;
27566;SDS011;15006;48.584;9.186;2022-12-22T11:30:15;5.43;;;1.52;;
27566;SDS011;15006;48.584;9.186;2022-12-22T11:44:15;5.93;;;1.52;;
27566;SDS011;15006;48.584;9.186;2022-12-22T11:47:01;7.85;;;2.17;;
27566;SDS011;15006;48.584;9.186;2022-12-22T11:49:51;9.20;;;2.27;;
27566;SDS011;15006;48.584;9.186;2022-12-22T11:55:34;10.35;;;2.35;;
27566;SDS011;15006;48.584;9.186;2022-12-22T11:58:09;6.65;;;1.92;;
27566;SDS011;15006;48.584;9.186;2022-12-22T12:01:34;6.10;;;1.50;;
27566;SDS011;15006;48.584;9.186;2022-12-22T12:06:58;7.05;;;1.60;;
27566;SDS011;15006;48.584;9.186;2022-12-22T12:15:39;5.30;;;1.50;;
27566;SDS011;15006;48.584;9.186;2022-12-22T12:18:25;6.60;;;1.75;;
27566;SDS011;15006;48.584;9.186;2022-12-22T12:29:18;3.90;;;1.45;;
27566;SDS011;15006;48.584;9.186;2022-12-22T12:31:55;6.57;;;1.67;;
27566;SDS011;15006;48.584;9.186;2022-12-22T12:34:55;6.20;;;1.25;;
27566;SDS011;15006;48.584;9.186;2022-12-22T12:37:36;3.95;;;1.13;;
27566;SDS011;15006;48.584;9.186;2022-12-22T12:43:21;4.60;;;1.27;;
27566;SDS011;15006;48.584;9.186;2022-12-22T12:45:48;4.22;;;1.48;;
27566;SDS011;15006;48.584;9.186;2022-12-22T12:50:50;3.83;;;1.85;;
27566;SDS011;15006;48.584;9.186;2022-12-22T12:53:18;4.43;;;1.60;;
27566;SDS011;15006;48.584;9.186;2022-12-22T13:02:27;4.07;;;1.63;;
27566;SDS011;15006;48.584;9.186;2022-12-22T13:10:33;7.00;;;2.45;;
27566;SDS011;15006;48.584;9.186;2022-12-22T13:13:12;7.18;;;2.13;;
27566;SDS011;15006;48.584;9.186;2022-12-22T13:21:55;8.77;;;1.83;;
27566;SDS011;15006;48.584;9.186;2022-12-22T13:24:12;7.63;;;2.20;;
27566;SDS011;15006;48.584;9.186;2022-12-22T13:26:40;10.55;;;2.08;;
27566;SDS011;15006;48.584;9.186;2022-12-22T13:32:29;9.75;;;2.03;;
27566;SDS011;15006;48.584;9.186;2022-12-22T13:37:47;9.00;;;2.72;;
27566;SDS011;15006;48.584;9.186;2022-12-22T13:40:17;4.97;;;1.73;;
27566;SDS011;15006;48.584;9.186;2022-12-22T13:43:02;13.57;;;2.15;;
27566;SDS011;15006;48.584;9.186;2022-12-22T13:50:44;8.60;;;2.53;;
27566;SDS011;15006;48.584;9.186;2022-12-22T13:53:39;7.60;;;1.98;;
27566;SDS011;15006;48.584;9.186;2022-12-22T13:56:17;9.05;;;2.55;;
27566;SDS011;15006;48.584;9.186;2022-12-22T13:59:00;7.93;;;2.15;;
27566;SDS011;15006;48.584;9.186;2022-12-22T14:01:29;11.48;;;2.00;;
27566;SDS011;15006;48.584;9.186;2022-12-22T14:03:57;10.35;;;3.53;;
27566;SDS011;15006;48.584;9.186;2022-12-22T14:06:32;11.23;;;2.70;;
27566;SDS011;15006;48.584;9.186;2022-12-22T14:11:54;14.95;;;2.67;;
27566;SDS011;15006;48.584;9.186;2022-12-22T14:14:34;10.85;;;3.03;;
27566;SDS011;15006;48.584;9.186;2022-12-22T14:17:03;6.93;;;2.20;;
27566;SDS011;15006;48.584;9.186;2022-12-22T14:19:47;9.95;;;2.75;;
27566;SDS011;15006;48.584;9.186;2022-12-22T14:22:20;13.80;;;2.78;;
27566;SDS011;15006;48.584;9.186;2022-12-22T14:24:58;8.35;;;2.58;;
27566;SDS011;15006;48.584;9.186;2022-12-22T14:27:34;9.32;;;2.35;;
27566;SDS011;15006;48.584;9.186;2022-12-22T14:30:06;10.75;;;2.63;;
27566;SDS011;15006;48.584;9.186;2022-12-22T14:32:45;12.68;;;2.45;;
27566;SDS011;15006;48.584;9.186;2022-12-22T14:35:22;13.10;;;2.58;;
27566;SDS011;15006;48.584;9.186;2022-12-22T14:40:42;8.63;;;2.30;;
27566;SDS011;15006;48.584;9.186;2022-12-22T14:45:40;8.23;;;2.28;;
27566;SDS011;15006;48.584;9.186;2022-12-22T14:48:07;16.00;;;2.75;;
27566;SDS011;15006;48.584;9.186;2022-12-22T14:50:35;9.57;;;2.47;;
27566;SDS011;15006;48.584;9.186;2022-12-22T14:53:02;7.90;;;2.30;;
27566;SDS011;15006;48.584;9.186;2022-12-22T14:55:36;10.18;;;2.50;;
27566;SDS011;15006;48.584;9.186;2022-12-22T14:58:13;8.98;;;2.17;;
27566;SDS011;15006;48.584;9.186;2022-12-22T15:00:45;7.47;;;2.10;;
27566;SDS011;15006;48.584;9.186;2022-12-22T15:05:49;12.45;;;2.38;;
27566;SDS011;15006;48.584;9.186;2022-12-22T15:11:24;14.90;;;2.80;;
27566;SDS011;15006;48.584;9.186;2022-12-22T15:13:50;16.17;;;2.75;;
27566;SDS011;15006;48.584;9.186;2022-12-22T15:16:17;8.93;;;2.35;;
27566;SDS011;15006;48.584;9.186;2022-12-22T15:18:45;11.00;;;2.78;;
27566;SDS011;15006;48.584;9.186;2022-12-22T15:21:12;13.20;;;2.53;;
27566;SDS011;15006;48.584;9.186;2022-12-22T15:23:40;10.68;;;2.80;;
27566;SDS011;15006;48.584;9.186;2022-12-22T15:26:07;10.25;;;2.35;;
27566;SDS011;15006;48.584;9.186;2022-12-22T15:28:33;11.30;;;2.35;;
27566;SDS011;15006;48.584;9.186;2022-12-22T15:31:02;11.18;;;2.47;;
27566;SDS011;15006;48.584;9.186;2022-12-22T15:33:35;8.02;;;1.95;;
27566;SDS011;15006;48.584;9.186;2022-12-22T15:36:01;12.77;;;2.75;;
27566;SDS011;15006;48.584;9.186;2022-12-22T15:38:28;12.15;;;2.95;;
27566;SDS011;15006;48.584;9.186;2022-12-22T15:40:54;14.32;;;3.28;;
27566;SDS011;15006;48.584;9.186;2022-12-22T15:43:20;11.43;;;2.40;;
27566;SDS011;15006;48.584;9.186;2022-12-22T15:45:46;12.75;;;2.70;;
27566;SDS011;15006;48.584;9.186;2022-12-22T15:48:13;8.05;;;2.60;;
27566;SDS011;15006;48.584;9.186;2022-12-22T15:50:47;12.68;;;2.78;;
27566;SDS011;15006;48.584;9.186;2022-12-22T15:53:14;14.27;;;2.83;;
27566;SDS011;15006;48.584;9.186;2022-12-22T15:55:43;11.52;;;2.65;;
27566;SDS011;15006;48.584;9.186;2022-12-22T15:58:13;7.97;;;2.30;;
27566;SDS011;15006;48.584;9.186;2022-12-22T16:03:10;12.27;;;2.65;;
27566;SDS011;15006;48.584;9.186;2022-12-22T16:05:37;11.18;;;2.65;;
27566;SDS011;15006;48.584;9.186;2022-12-22T16:08:08;10.70;;;2.47;;
27566;SDS011;15006;48.584;9.186;2022-12-22T16:10:46;9.80;;;2.88;;
27566;SDS011;15006;48.584;9.186;2022-12-22T16:13:14;17.98;;;2.40;;
27566;SDS011;15006;48.584;9.186;2022-12-22T16:15:41;11.80;;;2.45;;
27566;SDS011;15006;48.584;9.186;2022-12-22T16:18:09;8.57;;;2.33;;
27566;SDS011;15006;48.584;9.186;2022-12-22T16:20:38;14.57;;;2.90;;
27566;SDS011;15006;48.584;9.186;2022-12-22T16:23:06;10.25;;;2.90;;
27566;SDS011;15006;48.584;9.186;2022-12-22T16:25:37;14.90;;;3.08;;
27566;SDS011;15006;48.584;9.186;2022-12-22T16:28:04;16.92;;;3.72;;
27566;SDS011;15006;48.584;9.186;2022-12-22T16:30:32;16.50;;;3.17;;
27566;SDS011;15006;48.584;9.186;2022-12-22T16:32:59;16.65;;;3.08;;
27566;SDS011;15006;48.584;9.186;2022-12-22T16:35:26;11.45;;;2.75;;
27566;SDS011;15006;48.584;9.186;2022-12-22T16:37:55;12.93;;;3.30;;
27566;SDS011;15006;48.584;9.186;2022-12-22T16:40:23;13.07;;;3.22;;
27566;SDS011;15006;48.584;9.186;2022-12-22T16:43:01;14.57;;;2.80;;
27566;SDS011;15006;48.584;9.186;2022-12-22T16:45:35;12.45;;;2.95;;
27566;SDS011;15006;48.584;9.186;2022-12-22T16:48:06;18.73;;;4.05;;
27566;SDS011;15006;48.584;9.186;2022-12-22T16:50:42;14.68;;;2.92;;
27566;SDS011;15006;48.584;9.186;2022-12-22T16:53:11;10.70;;;3.00;;
27566;SDS011;15006;48.584;9.186;2022-12-22T16:55:38;9.80;;;2.60;;
27566;SDS011;15006;48.584;9.186;2022-12-22T16:58:05;13.15;;;2.80;;
27566;SDS011;15006;48.584;9.186;2022-12-22T17:00:34;14.88;;;3.08;;
27566;SDS011;15006;48.584;9.186;2022-12-22T17:03:03;14.52;;;2.83;;
27566;SDS011;15006;48.584;9.186;2022-12-22T17:05:56;17.38;;;3.42;;
27566;SDS011;15006;48.584;9.186;2022-12-22T17:08:29;17.02;;;3.55;;
27566;SDS011;15006;48.584;9.186;2022-12-22T17:10:59;14.05;;;3.35;;
27566;SDS011;15006;48.584;9.186;2022-12-22T17:13:28;17.52;;;3.47;;
27566;SDS011;15006;48.584;9.186;2022-12-22T17:15:54;14.38;;;3.30;;
27566;SDS011;15006;48.584;9.186;2022-12-22T17:18:21;14.38;;;3.38;;
27566;SDS011;15006;48.584;9.186;2022-12-22T17:20:49;15.68;;;3.25;;
27566;SDS011;15006;48.584;9.186;2022-12-22T17:23:35;15.95;;;3.42;;
27566;SDS011;15006;48.584;9.186;2022-12-22T17:26:06;13.82;;;2.90;;
27566;SDS011;15006;48.584;9.186;2022-12-22T17:31:02;15.57;;;3.15;;
27566;SDS011;15006;48.584;9.186;2022-12-22T17:33:28;10.27;;;3.53;;
27566;SDS011;15006;48.584;9.186;2022-12-22T17:35:56;14.00;;;3.63;;
27566;SDS011;15006;48.584;9.186;2022-12-22T17:38:23;12.52;;;4.18;;
27566;SDS011;15006;48.584;9.186;2022-12-22T17:40:51;13.20;;;4.20;;
27566;SDS011;15006;48.584;9.186;2022-12-22T17:43:19;16.10;;;5.20;;
27566;SDS011;15006;48.584;9.186;2022-12-22T17:45:45;14.80;;;6.43;;